sensor_id;sensor_type;location;lat;lon;timestamp;P1;durP1;ratioP1;P2;durP2;ratioP2
75554;SDS011;66087;53.126;17.960;2023-12-20T06:34:13;11.00;;;4.00;;
75554;SDS011;66087;53.126;17.960;2023-12-20T06:36:39;10.20;;;4.90;;
75554;SDS011;66087;53.126;17.960;2023-12-20T06:39:05;8.50;;;3.50;;
75554;SDS011;66087;53.126;17.960;2023-12-20T06:41:30;7.30;;;3.10;;
75554;SDS011;66087;53.126;17.960;2023-12-20T06:44:02;9.00;;;3.40;;
75554;SDS011;66087;53.126;17.960;2023-12-20T06:46:28;9.00;;;3.50;;
75554;SDS011;66087;53.126;17.960;2023-12-20T06:48:55;11.40;;;3.80;;
75554;SDS011;66087;53.126;17.960;2023-12-20T06:51:21;8.00;;;2.70;;
75554;SDS011;66087;53.126;17.960;2023-12-20T06:53:51;7.70;;;3.20;;
75554;SDS011;66087;53.126;17.960;2023-12-20T06:56:18;8.40;;;3.10;;
75554;SDS011;66087;53.126;17.960;2023-12-20T06:58:44;9.10;;;3.40;;
75554;SDS011;66087;53.126;17.960;2023-12-20T07:01:11;9.00;;;4.20;;
75554;SDS011;66087;53.126;17.960;2023-12-20T07:03:37;10.10;;;3.80;;
75554;SDS011;66087;53.126;17.960;2023-12-20T07:06:06;8.60;;;3.50;;
75554;SDS011;66087;53.126;17.960;2023-12-20T07:08:32;12.00;;;4.50;;
75554;SDS011;66087;53.126;17.960;2023-12-20T07:10:58;8.80;;;3.70;;
75554;SDS011;66087;53.126;17.960;2023-12-20T07:13:25;10.70;;;4.20;;
75554;SDS011;66087;53.126;17.960;2023-12-20T07:15:51;8.80;;;3.20;;
75554;SDS011;66087;53.126;17.960;2023-12-20T07:18:17;8.40;;;2.60;;
75554;SDS011;66087;53.126;17.960;2023-12-20T07:20:44;6.70;;;2.40;;
75554;SDS011;66087;53.126;17.960;2023-12-20T07:23:11;9.90;;;4.30;;
75554;SDS011;66087;53.126;17.960;2023-12-20T07:25:37;8.40;;;3.50;;
75554;SDS011;66087;53.126;17.960;2023-12-20T07:28:03;7.70;;;3.30;;
75554;SDS011;66087;53.126;17.960;2023-12-20T07:30:29;8.20;;;3.60;;
75554;SDS011;66087;53.126;17.960;2023-12-20T07:32:56;9.20;;;3.50;;
75554;SDS011;66087;53.126;17.960;2023-12-20T07:35:27;7.60;;;2.80;;
75554;SDS011;66087;53.126;17.960;2023-12-20T07:37:54;6.60;;;2.60;;
75554;SDS011;66087;53.126;17.960;2023-12-20T07:40:20;6.60;;;1.90;;
75554;SDS011;66087;53.126;17.960;2023-12-20T07:42:46;7.80;;;2.70;;
75554;SDS011;66087;53.126;17.960;2023-12-20T07:45:12;10.10;;;3.60;;
75554;SDS011;66087;53.126;17.960;2023-12-20T07:47:38;8.90;;;2.80;;
75554;SDS011;66087;53.126;17.960;2023-12-20T07:50:04;11.30;;;3.60;;
75554;SDS011;66087;53.126;17.960;2023-12-20T07:52:30;7.60;;;2.60;;
75554;SDS011;66087;53.126;17.960;2023-12-20T07:54:57;9.00;;;2.80;;
75554;SDS011;66087;53.126;17.960;2023-12-20T07:57:23;9.90;;;2.60;;
75554;SDS011;66087;53.126;17.960;2023-12-20T07:59:49;10.10;;;3.10;;
75554;SDS011;66087;53.126;17.960;2023-12-20T08:02:16;10.40;;;3.90;;
75554;SDS011;66087;53.126;17.960;2023-12-20T08:04:42;8.50;;;2.40;;
75554;SDS011;66087;53.126;17.960;2023-12-20T08:07:08;9.30;;;3.80;;
75554;SDS011;66087;53.126;17.960;2023-12-20T08:09:34;8.00;;;2.20;;
75554;SDS011;66087;53.126;17.960;2023-12-20T08:12:02;8.40;;;2.80;;
75554;SDS011;66087;53.126;17.960;2023-12-20T08:14:28;9.10;;;3.10;;
75554;SDS011;66087;53.126;17.960;2023-12-20T08:16:54;7.00;;;2.40;;
75554;SDS011;66087;53.126;17.960;2023-12-20T08:19:22;8.40;;;3.10;;
75554;SDS011;66087;53.126;17.960;2023-12-20T08:21:48;9.70;;;3.70;;
75554;SDS011;66087;53.126;17.960;2023-12-20T08:24:15;10.30;;;3.20;;
75554;SDS011;66087;53.126;17.960;2023-12-20T08:26:41;7.30;;;3.30;;
75554;SDS011;66087;53.126;17.960;2023-12-20T08:29:07;10.50;;;3.70;;
75554;SDS011;66087;53.126;17.960;2023-12-20T08:31:33;14.80;;;5.70;;
75554;SDS011;66087;53.126;17.960;2023-12-20T08:34:00;15.50;;;6.50;;
75554;SDS011;66087;53.126;17.960;2023-12-20T08:36:26;15.50;;;6.80;;
75554;SDS011;66087;53.126;17.960;2023-12-20T08:38:52;23.40;;;11.10;;
75554;SDS011;66087;53.126;17.960;2023-12-20T08:41:19;16.60;;;7.20;;
75554;SDS011;66087;53.126;17.960;2023-12-20T08:43:46;23.00;;;9.60;;
75554;SDS011;66087;53.126;17.960;2023-12-20T08:46:13;44.80;;;21.60;;
75554;SDS011;66087;53.126;17.960;2023-12-20T08:48:39;25.20;;;10.00;;
75554;SDS011;66087;53.126;17.960;2023-12-20T08:51:05;12.00;;;4.30;;
75554;SDS011;66087;53.126;17.960;2023-12-20T08:53:35;12.10;;;3.90;;
75554;SDS011;66087;53.126;17.960;2023-12-20T08:56:01;10.50;;;3.30;;
75554;SDS011;66087;53.126;17.960;2023-12-20T08:58:28;16.10;;;5.60;;
75554;SDS011;66087;53.126;17.960;2023-12-20T09:00:54;13.00;;;3.90;;
75554;SDS011;66087;53.126;17.960;2023-12-20T09:03:20;13.20;;;5.10;;
75554;SDS011;66087;53.126;17.960;2023-12-20T09:05:46;11.60;;;4.00;;
75554;SDS011;66087;53.126;17.960;2023-12-20T09:08:12;14.00;;;4.40;;
75554;SDS011;66087;53.126;17.960;2023-12-20T09:10:38;8.60;;;2.90;;
75554;SDS011;66087;53.126;17.960;2023-12-20T09:13:07;10.80;;;3.90;;
75554;SDS011;66087;53.126;17.960;2023-12-20T09:15:33;9.50;;;3.60;;
75554;SDS011;66087;53.126;17.960;2023-12-20T09:17:59;11.60;;;2.90;;
75554;SDS011;66087;53.126;17.960;2023-12-20T09:20:26;11.00;;;3.90;;
75554;SDS011;66087;53.126;17.960;2023-12-20T09:22:53;11.80;;;2.60;;
75554;SDS011;66087;53.126;17.960;2023-12-20T09:25:20;8.90;;;2.50;;
75554;SDS011;66087;53.126;17.960;2023-12-20T09:27:48;7.80;;;2.30;;
75554;SDS011;66087;53.126;17.960;2023-12-20T09:30:17;7.70;;;2.70;;
75554;SDS011;66087;53.126;17.960;2023-12-20T09:32:42;6.50;;;2.40;;
75554;SDS011;66087;53.126;17.960;2023-12-20T09:35:08;8.40;;;2.80;;
75554;SDS011;66087;53.126;17.960;2023-12-20T09:37:35;8.10;;;2.20;;
75554;SDS011;66087;53.126;17.960;2023-12-20T09:40:04;7.00;;;2.10;;
75554;SDS011;66087;53.126;17.960;2023-12-20T09:42:39;7.80;;;2.70;;
75554;SDS011;66087;53.126;17.960;2023-12-20T09:45:14;8.20;;;2.60;;
75554;SDS011;66087;53.126;17.960;2023-12-20T09:47:46;8.20;;;2.80;;
75554;SDS011;66087;53.126;17.960;2023-12-20T09:50:13;6.60;;;1.90;;
75554;SDS011;66087;53.126;17.960;2023-12-20T09:52:40;5.50;;;2.20;;
75554;SDS011;66087;53.126;17.960;2023-12-20T09:55:07;6.60;;;2.10;;
75554;SDS011;66087;53.126;17.960;2023-12-20T09:57:35;5.60;;;1.50;;
75554;SDS011;66087;53.126;17.960;2023-12-20T10:00:13;6.40;;;1.90;;
75554;SDS011;66087;53.126;17.960;2023-12-20T10:02:42;7.20;;;1.60;;
75554;SDS011;66087;53.126;17.960;2023-12-20T10:05:15;4.30;;;1.70;;
75554;SDS011;66087;53.126;17.960;2023-12-20T10:07:42;6.20;;;1.70;;
75554;SDS011;66087;53.126;17.960;2023-12-20T10:10:10;4.60;;;1.50;;
75554;SDS011;66087;53.126;17.960;2023-12-20T10:12:39;7.10;;;2.30;;
75554;SDS011;66087;53.126;17.960;2023-12-20T10:15:06;7.00;;;1.50;;
75554;SDS011;66087;53.126;17.960;2023-12-20T10:17:33;5.30;;;2.40;;
75554;SDS011;66087;53.126;17.960;2023-12-20T10:20:00;6.20;;;2.30;;
75554;SDS011;66087;53.126;17.960;2023-12-20T10:22:26;7.80;;;2.80;;
75554;SDS011;66087;53.126;17.960;2023-12-20T10:24:59;5.80;;;2.20;;
75554;SDS011;66087;53.126;17.960;2023-12-20T10:27:25;8.30;;;3.60;;
75554;SDS011;66087;53.126;17.960;2023-12-20T10:29:58;6.80;;;2.60;;
75554;SDS011;66087;53.126;17.960;2023-12-20T10:32:25;7.90;;;2.80;;
75554;SDS011;66087;53.126;17.960;2023-12-20T10:34:54;8.10;;;2.20;;
75554;SDS011;66087;53.126;17.960;2023-12-20T10:37:22;6.80;;;2.60;;
75554;SDS011;66087;53.126;17.960;2023-12-20T10:39:50;9.30;;;2.30;;
75554;SDS011;66087;53.126;17.960;2023-12-20T10:42:26;7.40;;;2.30;;
75554;SDS011;66087;53.126;17.960;2023-12-20T10:45:09;8.60;;;2.60;;
75554;SDS011;66087;53.126;17.960;2023-12-20T10:47:35;6.30;;;2.30;;
75554;SDS011;66087;53.126;17.960;2023-12-20T10:50:02;6.10;;;2.00;;
75554;SDS011;66087;53.126;17.960;2023-12-20T10:52:30;9.50;;;2.60;;
75554;SDS011;66087;53.126;17.960;2023-12-20T10:55:00;5.90;;;1.90;;
75554;SDS011;66087;53.126;17.960;2023-12-20T10:57:26;4.60;;;1.70;;
75554;SDS011;66087;53.126;17.960;2023-12-20T10:59:53;9.30;;;2.40;;
75554;SDS011;66087;53.126;17.960;2023-12-20T11:02:21;6.40;;;2.40;;
75554;SDS011;66087;53.126;17.960;2023-12-20T11:07:54;7.20;;;2.00;;
75554;SDS011;66087;53.126;17.960;2023-12-20T11:10:28;9.70;;;3.00;;
75554;SDS011;66087;53.126;17.960;2023-12-20T11:13:06;8.00;;;2.30;;
75554;SDS011;66087;53.126;17.960;2023-12-20T11:15:42;8.50;;;3.00;;
75554;SDS011;66087;53.126;17.960;2023-12-20T11:18:09;7.80;;;2.00;;
75554;SDS011;66087;53.126;17.960;2023-12-20T11:20:38;9.60;;;2.00;;
75554;SDS011;66087;53.126;17.960;2023-12-20T11:23:10;6.80;;;1.40;;
75554;SDS011;66087;53.126;17.960;2023-12-20T11:25:47;9.90;;;3.00;;
75554;SDS011;66087;53.126;17.960;2023-12-20T11:28:14;8.30;;;1.60;;
75554;SDS011;66087;53.126;17.960;2023-12-20T11:30:43;8.30;;;2.10;;
75554;SDS011;66087;53.126;17.960;2023-12-20T11:33:12;7.90;;;1.80;;
75554;SDS011;66087;53.126;17.960;2023-12-20T11:35:38;7.70;;;1.90;;
75554;SDS011;66087;53.126;17.960;2023-12-20T11:38:07;7.60;;;2.30;;
75554;SDS011;66087;53.126;17.960;2023-12-20T11:40:33;5.80;;;1.70;;
75554;SDS011;66087;53.126;17.960;2023-12-20T11:42:59;7.00;;;1.80;;
75554;SDS011;66087;53.126;17.960;2023-12-20T11:45:25;8.60;;;2.70;;
75554;SDS011;66087;53.126;17.960;2023-12-20T11:48:05;7.40;;;2.80;;
75554;SDS011;66087;53.126;17.960;2023-12-20T11:50:32;9.70;;;2.80;;
75554;SDS011;66087;53.126;17.960;2023-12-20T11:53:07;5.70;;;2.00;;
75554;SDS011;66087;53.126;17.960;2023-12-20T11:55:33;6.80;;;2.70;;
75554;SDS011;66087;53.126;17.960;2023-12-20T11:58:04;6.40;;;1.80;;
75554;SDS011;66087;53.126;17.960;2023-12-20T12:00:32;5.30;;;1.70;;
75554;SDS011;66087;53.126;17.960;2023-12-20T12:02:58;7.70;;;2.10;;
75554;SDS011;66087;53.126;17.960;2023-12-20T12:05:30;6.20;;;2.10;;
75554;SDS011;66087;53.126;17.960;2023-12-20T12:07:56;4.10;;;1.40;;
75554;SDS011;66087;53.126;17.960;2023-12-20T12:10:24;5.70;;;1.70;;
75554;SDS011;66087;53.126;17.960;2023-12-20T12:12:53;4.60;;;1.50;;
75554;SDS011;66087;53.126;17.960;2023-12-20T12:15:21;7.70;;;2.20;;
75554;SDS011;66087;53.126;17.960;2023-12-20T12:17:54;7.50;;;2.40;;
75554;SDS011;66087;53.126;17.960;2023-12-20T12:20:24;11.90;;;4.60;;
75554;SDS011;66087;53.126;17.960;2023-12-20T12:23:00;8.40;;;1.80;;
75554;SDS011;66087;53.126;17.960;2023-12-20T12:25:28;7.50;;;2.20;;
75554;SDS011;66087;53.126;17.960;2023-12-20T12:27:58;5.90;;;2.00;;
75554;SDS011;66087;53.126;17.960;2023-12-20T12:30:24;6.10;;;2.10;;
75554;SDS011;66087;53.126;17.960;2023-12-20T12:32:55;8.80;;;2.10;;
75554;SDS011;66087;53.126;17.960;2023-12-20T12:35:29;6.50;;;2.00;;
75554;SDS011;66087;53.126;17.960;2023-12-20T12:37:58;6.10;;;1.60;;
75554;SDS011;66087;53.126;17.960;2023-12-20T12:40:25;8.10;;;2.40;;
75554;SDS011;66087;53.126;17.960;2023-12-20T12:42:52;7.30;;;2.60;;
75554;SDS011;66087;53.126;17.960;2023-12-20T12:45:24;7.80;;;2.40;;
75554;SDS011;66087;53.126;17.960;2023-12-20T12:47:53;6.10;;;1.90;;
75554;SDS011;66087;53.126;17.960;2023-12-20T12:50:21;6.40;;;2.50;;
75554;SDS011;66087;53.126;17.960;2023-12-20T12:52:54;6.00;;;2.40;;
75554;SDS011;66087;53.126;17.960;2023-12-20T12:55:21;6.80;;;2.50;;
75554;SDS011;66087;53.126;17.960;2023-12-20T12:58:00;6.10;;;2.00;;
75554;SDS011;66087;53.126;17.960;2023-12-20T13:00:27;6.10;;;1.60;;
75554;SDS011;66087;53.126;17.960;2023-12-20T13:02:56;6.30;;;1.70;;
75554;SDS011;66087;53.126;17.960;2023-12-20T13:05:21;6.70;;;2.10;;
75554;SDS011;66087;53.126;17.960;2023-12-20T13:07:48;6.00;;;2.00;;
75554;SDS011;66087;53.126;17.960;2023-12-20T13:10:16;6.20;;;2.20;;
75554;SDS011;66087;53.126;17.960;2023-12-20T13:12:43;7.50;;;1.80;;
75554;SDS011;66087;53.126;17.960;2023-12-20T13:15:10;6.20;;;1.60;;
75554;SDS011;66087;53.126;17.960;2023-12-20T13:17:38;6.40;;;2.10;;
75554;SDS011;66087;53.126;17.960;2023-12-20T13:20:04;7.10;;;2.50;;
75554;SDS011;66087;53.126;17.960;2023-12-20T13:22:31;7.90;;;2.30;;
75554;SDS011;66087;53.126;17.960;2023-12-20T13:24:58;6.40;;;2.30;;
75554;SDS011;66087;53.126;17.960;2023-12-20T13:27:24;5.90;;;2.10;;
75554;SDS011;66087;53.126;17.960;2023-12-20T13:29:50;6.00;;;2.40;;
75554;SDS011;66087;53.126;17.960;2023-12-20T13:32:16;8.70;;;3.10;;
75554;SDS011;66087;53.126;17.960;2023-12-20T13:34:44;6.20;;;2.10;;
75554;SDS011;66087;53.126;17.960;2023-12-20T13:37:10;5.70;;;2.30;;
75554;SDS011;66087;53.126;17.960;2023-12-20T13:39:36;5.50;;;2.20;;
75554;SDS011;66087;53.126;17.960;2023-12-20T13:42:02;7.70;;;2.20;;
75554;SDS011;66087;53.126;17.960;2023-12-20T13:44:28;5.60;;;2.10;;
75554;SDS011;66087;53.126;17.960;2023-12-20T13:46:54;7.00;;;2.50;;
75554;SDS011;66087;53.126;17.960;2023-12-20T13:49:22;7.30;;;2.30;;
75554;SDS011;66087;53.126;17.960;2023-12-20T13:51:53;9.90;;;3.90;;
75554;SDS011;66087;53.126;17.960;2023-12-20T13:54:31;6.80;;;1.70;;
75554;SDS011;66087;53.126;17.960;2023-12-20T13:56:59;7.50;;;2.50;;
75554;SDS011;66087;53.126;17.960;2023-12-20T13:59:25;6.70;;;2.20;;
75554;SDS011;66087;53.126;17.960;2023-12-20T14:01:57;11.10;;;3.60;;
75554;SDS011;66087;53.126;17.960;2023-12-20T14:04:23;6.10;;;2.40;;
75554;SDS011;66087;53.126;17.960;2023-12-20T14:06:49;8.00;;;1.90;;
75554;SDS011;66087;53.126;17.960;2023-12-20T14:09:17;10.00;;;3.10;;
75554;SDS011;66087;53.126;17.960;2023-12-20T14:11:43;5.90;;;2.20;;
75554;SDS011;66087;53.126;17.960;2023-12-20T14:14:19;9.40;;;2.70;;
75554;SDS011;66087;53.126;17.960;2023-12-20T14:16:48;10.20;;;3.00;;
75554;SDS011;66087;53.126;17.960;2023-12-20T14:19:19;9.10;;;2.80;;
75554;SDS011;66087;53.126;17.960;2023-12-20T14:21:45;7.50;;;2.90;;
75554;SDS011;66087;53.126;17.960;2023-12-20T14:24:12;8.40;;;2.60;;
75554;SDS011;66087;53.126;17.960;2023-12-20T14:26:41;8.80;;;2.80;;
75554;SDS011;66087;53.126;17.960;2023-12-20T14:29:12;10.50;;;3.80;;
75554;SDS011;66087;53.126;17.960;2023-12-20T14:31:40;14.00;;;5.10;;
75554;SDS011;66087;53.126;17.960;2023-12-20T14:34:06;12.20;;;4.20;;
75554;SDS011;66087;53.126;17.960;2023-12-20T14:36:32;14.30;;;5.50;;
75554;SDS011;66087;53.126;17.960;2023-12-20T14:41:57;14.60;;;4.90;;
75554;SDS011;66087;53.126;17.960;2023-12-20T14:44:24;11.60;;;3.40;;
75554;SDS011;66087;53.126;17.960;2023-12-20T14:46:50;14.70;;;4.70;;
75554;SDS011;66087;53.126;17.960;2023-12-20T14:49:16;9.80;;;3.30;;
75554;SDS011;66087;53.126;17.960;2023-12-20T14:51:44;8.70;;;3.40;;
75554;SDS011;66087;53.126;17.960;2023-12-20T14:54:11;9.40;;;2.80;;
75554;SDS011;66087;53.126;17.960;2023-12-20T14:56:38;10.80;;;3.10;;
75554;SDS011;66087;53.126;17.960;2023-12-20T14:59:04;11.60;;;3.10;;
75554;SDS011;66087;53.126;17.960;2023-12-20T15:01:31;7.50;;;2.50;;
75554;SDS011;66087;53.126;17.960;2023-12-20T15:03:57;12.10;;;3.90;;
75554;SDS011;66087;53.126;17.960;2023-12-20T15:06:29;11.90;;;3.00;;
75554;SDS011;66087;53.126;17.960;2023-12-20T15:08:57;17.20;;;4.60;;
75554;SDS011;66087;53.126;17.960;2023-12-20T15:11:27;12.70;;;3.60;;
75554;SDS011;66087;53.126;17.960;2023-12-20T15:13:53;9.00;;;2.90;;
75554;SDS011;66087;53.126;17.960;2023-12-20T15:16:22;10.40;;;3.50;;
75554;SDS011;66087;53.126;17.960;2023-12-20T15:18:48;17.50;;;6.20;;
75554;SDS011;66087;53.126;17.960;2023-12-20T15:21:15;14.90;;;5.20;;
75554;SDS011;66087;53.126;17.960;2023-12-20T15:23:40;12.50;;;5.10;;
75554;SDS011;66087;53.126;17.960;2023-12-20T15:26:18;14.70;;;5.60;;
75554;SDS011;66087;53.126;17.960;2023-12-20T15:28:44;10.80;;;4.10;;
